createdAt,value
2023-03-23T15:57:56.171Z,100479.06
2023-03-23T16:00:28.711Z,100482.28
2023-03-23T16:03:01.709Z,100480.09
2023-03-23T16:05:29.905Z,100475.53
2023-03-23T16:07:58.092Z,100482.72
2023-03-23T16:10:28.663Z,100478.91
2023-03-23T16:12:56.551Z,100481.59
2023-03-23T16:15:24.530Z,100480.09
2023-03-23T16:17:52.233Z,100475.78
2023-03-23T16:20:21.952Z,100478.50
2023-03-23T16:22:50.141Z,100477.41
2023-03-23T16:25:19.082Z,100480.81
2023-03-23T16:27:51.755Z,100483.03
2023-03-23T16:30:25.300Z,100476.41
2023-03-23T16:32:54.861Z,100488.22
2023-03-23T16:35:25.091Z,100481.25
2023-03-23T16:38:07.679Z,100484.91
2023-03-23T16:40:38.129Z,100488.44
2023-03-23T16:43:09.273Z,100495.94
2023-03-23T16:45:38.810Z,100492.00
2023-03-23T16:48:08.390Z,100492.47
2023-03-23T16:50:36.891Z,100498.38
2023-03-23T16:53:05.757Z,100501.94
2023-03-23T16:55:34.026Z,100505.75
2023-03-23T16:58:15.472Z,100505.09
2023-03-23T17:00:49.147Z,100508.63
2023-03-23T17:03:18.104Z,100512.91
2023-03-23T17:05:48.385Z,100514.44
2023-03-23T17:08:16.689Z,100519.41
2023-03-23T17:10:44.777Z,100521.44
2023-03-23T17:13:12.493Z,100528.81
2023-03-23T17:15:45.139Z,100521.47
2023-03-23T17:18:14.962Z,100525.34
2023-03-23T17:20:42.927Z,100520.25
2023-03-23T17:23:10.582Z,100522.22
2023-03-23T17:25:38.648Z,100526.50
2023-03-23T17:28:07.219Z,100529.22
2023-03-23T17:30:35.705Z,100521.81
2023-03-23T17:33:03.420Z,100533.06
2023-03-23T17:35:31.359Z,100536.56
2023-03-23T17:37:59.038Z,100539.69
2023-03-23T17:40:27.097Z,100543.97
2023-03-23T17:42:54.837Z,100544.75
2023-03-23T17:45:23.030Z,100546.28
2023-03-23T17:47:50.817Z,100552.47
2023-03-23T17:50:19.972Z,100548.09
2023-03-23T17:53:12.567Z,100552.69
2023-03-23T17:55:43.438Z,100549.94
2023-03-23T17:58:12.456Z,100549.69
2023-03-23T18:00:40.477Z,100553.19
2023-03-23T18:03:08.180Z,100554.69
2023-03-23T18:05:38.464Z,100561.91
2023-03-23T18:08:06.595Z,100564.28
2023-03-23T18:10:36.755Z,100565.06
2023-03-23T18:13:05.856Z,100569.34
2023-03-23T18:15:35.556Z,100558.50
2023-03-23T18:18:04.297Z,100563.53
2023-03-23T18:20:32.840Z,100564.28
2023-03-23T18:23:00.566Z,100566.56
2023-03-23T18:25:28.527Z,100571.56
2023-03-23T18:27:56.446Z,100573.50
2023-03-23T18:30:33.619Z,100577.31
2023-03-23T18:33:01.458Z,100585.84
2023-03-23T18:35:30.407Z,100586.19
2023-03-23T18:37:58.197Z,100583.53
2023-03-23T18:40:26.336Z,100585.84
2023-03-23T18:42:53.967Z,100590.09
2023-03-23T18:45:22.013Z,100595.00
2023-03-23T18:47:50.203Z,100593.06
2023-03-23T18:50:19.473Z,100591.78
2023-03-23T18:52:47.168Z,100597.66
2023-03-23T18:55:15.122Z,100602.28
2023-03-23T18:57:42.885Z,100611.59
2023-03-23T19:00:11.396Z,100610.19
2023-03-23T19:02:40.427Z,100617.06
2023-03-23T19:05:09.319Z,100613.19
2023-03-23T19:07:38.511Z,100620.06
2023-03-23T19:10:06.969Z,100614.84
2023-03-23T19:12:34.675Z,100624.63
2023-03-23T19:15:02.737Z,100620.56
2023-03-23T19:17:30.486Z,100625.53
2023-03-23T19:19:58.549Z,100623.94
2023-03-23T19:22:26.142Z,100622.38
2023-03-23T19:24:54.014Z,100628.72
2023-03-23T19:27:21.967Z,100615.25
2023-03-23T19:29:50.014Z,100620.97
2023-03-23T19:32:17.685Z,100629.16
2023-03-23T19:34:50.772Z,100627.22
2023-03-23T19:37:19.008Z,100627.75
2023-03-23T19:39:47.354Z,100639.19
2023-03-23T19:42:17.141Z,100638.09
2023-03-23T19:44:45.111Z,100632.09
2023-03-23T19:47:13.082Z,100630.69
2023-03-23T19:49:41.264Z,100641.28
2023-03-23T19:52:12.602Z,100644.75
2023-03-23T19:54:42.429Z,100645.13
2023-03-23T19:57:12.809Z,100642.97
2023-03-23T19:59:41.142Z,100642.41
2023-03-23T20:02:11.404Z,100647.19
2023-03-23T20:04:39.992Z,100642.47
2023-03-23T20:07:08.790Z,100644.06
2023-03-23T20:09:38.339Z,100644.34
2023-03-23T20:12:06.464Z,100652.56
2023-03-23T20:14:35.356Z,100649.28
2023-03-23T20:17:05.223Z,100656.34
2023-03-23T20:19:36.379Z,100655.28
2023-03-23T20:22:04.795Z,100659.63
2023-03-23T20:24:33.606Z,100660.97
2023-03-23T20:27:03.421Z,100667.72
2023-03-23T20:29:33.489Z,100661.13
2023-03-23T20:32:01.370Z,100668.16
2023-03-23T20:34:31.177Z,100671.63
2023-03-23T20:37:00.258Z,100667.50
2023-03-23T20:39:30.750Z,100669.22
2023-03-23T20:42:00.777Z,100669.72
2023-03-23T20:44:31.527Z,100670.56
2023-03-23T20:46:59.954Z,100677.53
2023-03-23T20:49:28.679Z,100676.38
2023-03-23T20:51:56.506Z,100674.97
2023-03-23T20:54:24.785Z,100674.53
2023-03-23T20:56:54.873Z,100681.00
2023-03-23T20:59:24.785Z,100681.91
2023-03-23T21:01:52.407Z,100686.41
2023-03-23T21:04:23.074Z,100679.22
2023-03-23T21:06:52.062Z,100678.09
2023-03-23T21:09:20.451Z,100693.09
2023-03-23T21:11:48.140Z,100688.13
2023-03-23T21:14:16.562Z,100684.16
2023-03-23T21:16:44.288Z,100685.09
2023-03-23T21:19:13.223Z,100688.13
2023-03-23T21:21:55.207Z,100683.47
2023-03-23T21:24:28.389Z,100696.03
2023-03-23T21:26:57.737Z,100687.16
2023-03-23T21:29:27.844Z,100693.31
2023-03-23T21:32:07.674Z,100695.53
2023-03-23T21:34:37.428Z,100697.84
2023-03-23T21:37:05.152Z,100688.97
2023-03-23T21:39:34.805Z,100701.84
2023-03-23T21:42:05.067Z,100690.97
2023-03-23T21:44:35.166Z,100691.41
2023-03-23T21:47:03.541Z,100689.19
2023-03-23T21:49:31.804Z,100689.19
2023-03-23T21:51:59.471Z,100685.34
2023-03-23T21:54:30.305Z,100679.88
2023-03-23T21:56:58.961Z,100673.34
2023-03-23T21:59:27.497Z,100671.44
2023-03-23T22:01:58.229Z,100676.69
2023-03-23T22:04:28.173Z,100676.56
2023-03-23T22:06:56.478Z,100675.72
2023-03-23T22:09:24.812Z,100670.78
2023-03-23T22:11:52.566Z,100676.56
2023-03-23T22:14:20.571Z,100679.47
2023-03-23T22:16:48.397Z,100674.50
2023-03-23T22:19:16.381Z,100670.22
2023-03-23T22:21:44.197Z,100673.06
2023-03-23T22:24:12.246Z,100682.66
2023-03-23T22:26:39.966Z,100688.44
2023-03-23T22:29:10.579Z,100690.75
2023-03-23T22:31:40.003Z,100679.16
2023-03-23T22:34:08.082Z,100677.50
2023-03-23T22:36:35.794Z,100674.81
2023-03-23T22:39:04.341Z,100674.09
2023-03-23T22:41:33.530Z,100669.78
2023-03-23T22:44:01.523Z,100678.19
2023-03-23T22:46:29.234Z,100670.16
2023-03-23T22:48:57.342Z,100671.06
2023-03-23T22:51:25.891Z,100670.81
2023-03-23T22:53:55.539Z,100663.16
2023-03-23T22:56:24.939Z,100662.13
2023-03-23T22:58:53.559Z,100664.56
2023-03-23T23:01:22.224Z,100670.66
2023-03-23T23:03:50.879Z,100675.13
2023-03-23T23:06:18.925Z,100675.25
2023-03-23T23:08:47.337Z,100677.59
2023-03-23T23:11:16.512Z,100668.16
2023-03-23T23:13:45.114Z,100677.09
2023-03-23T23:16:14.422Z,100680.53
2023-03-23T23:18:43.081Z,100673.16
2023-03-23T23:21:13.279Z,100658.53
2023-03-23T23:23:41.502Z,100664.88
2023-03-23T23:26:09.170Z,100664.09
2023-03-23T23:28:37.492Z,100661.97
2023-03-23T23:31:06.770Z,100661.72
2023-03-23T23:33:34.874Z,100654.19
2023-03-23T23:36:03.032Z,100653.94
2023-03-23T23:38:31.345Z,100661.41
2023-03-23T23:40:58.963Z,100660.31
2023-03-23T23:43:27.084Z,100667.41
2023-03-23T23:45:54.904Z,100660.38
2023-03-23T23:48:23.373Z,100661.94
2023-03-23T23:50:51.683Z,100663.38
2023-03-23T23:53:23.253Z,100664.25
2023-03-23T23:55:51.147Z,100660.66
2023-03-23T23:58:20.112Z,100659.84
